sensor_id;sensor_type;location;lat;lon;timestamp;temperature;humidity
7206;DHT22;3644;53.480;10.004;2023-06-14T00:00:11;17.80;99.90
7206;DHT22;3644;53.480;10.004;2023-06-14T00:02:39;17.90;99.90
7206;DHT22;3644;53.480;10.004;2023-06-14T00:05:05;17.80;99.90
7206;DHT22;3644;53.480;10.004;2023-06-14T00:07:39;17.80;99.90
7206;DHT22;3644;53.480;10.004;2023-06-14T00:10:09;17.60;99.90
7206;DHT22;3644;53.480;10.004;2023-06-14T00:12:35;17.50;99.90
7206;DHT22;3644;53.480;10.004;2023-06-14T00:15:01;17.60;99.90
7206;DHT22;3644;53.480;10.004;2023-06-14T00:17:27;17.60;99.90
7206;DHT22;3644;53.480;10.004;2023-06-14T00:19:57;17.50;99.90
7206;DHT22;3644;53.480;10.004;2023-06-14T00:22:23;17.50;99.90
7206;DHT22;3644;53.480;10.004;2023-06-14T00:24:52;17.50;99.90
7206;DHT22;3644;53.480;10.004;2023-06-14T00:27:17;17.50;99.90
7206;DHT22;3644;53.480;10.004;2023-06-14T00:29:43;17.60;99.90
7206;DHT22;3644;53.480;10.004;2023-06-14T00:32:08;17.50;99.90
7206;DHT22;3644;53.480;10.004;2023-06-14T00:34:34;17.30;99.90
7206;DHT22;3644;53.480;10.004;2023-06-14T00:37:00;17.30;99.90
7206;DHT22;3644;53.480;10.004;2023-06-14T00:39:26;17.30;99.90
7206;DHT22;3644;53.480;10.004;2023-06-14T00:41:52;17.40;99.90
7206;DHT22;3644;53.480;10.004;2023-06-14T00:44:17;17.30;99.90
7206;DHT22;3644;53.480;10.004;2023-06-14T00:46:45;17.40;99.90
7206;DHT22;3644;53.480;10.004;2023-06-14T00:49:12;17.40;99.90
7206;DHT22;3644;53.480;10.004;2023-06-14T00:51:39;17.40;99.90
7206;DHT22;3644;53.480;10.004;2023-06-14T00:54:05;17.30;99.90
7206;DHT22;3644;53.480;10.004;2023-06-14T00:56:30;17.20;99.90
7206;DHT22;3644;53.480;10.004;2023-06-14T00:58:56;17.30;99.90
7206;DHT22;3644;53.480;10.004;2023-06-14T01:01:23;17.30;99.90
7206;DHT22;3644;53.480;10.004;2023-06-14T01:03:49;17.00;99.90
7206;DHT22;3644;53.480;10.004;2023-06-14T01:06:45;16.90;99.90
7206;DHT22;3644;53.480;10.004;2023-06-14T01:09:27;17.00;99.90
7206;DHT22;3644;53.480;10.004;2023-06-14T01:12:05;17.00;99.90
7206;DHT22;3644;53.480;10.004;2023-06-14T01:14:34;17.00;99.90
7206;DHT22;3644;53.480;10.004;2023-06-14T01:17:00;17.00;99.90
7206;DHT22;3644;53.480;10.004;2023-06-14T01:19:28;17.00;99.90
7206;DHT22;3644;53.480;10.004;2023-06-14T01:21:55;16.80;99.90
7206;DHT22;3644;53.480;10.004;2023-06-14T01:24:21;16.90;99.90
7206;DHT22;3644;53.480;10.004;2023-06-14T01:26:52;16.90;99.90
7206;DHT22;3644;53.480;10.004;2023-06-14T01:29:22;16.90;99.90
7206;DHT22;3644;53.480;10.004;2023-06-14T01:31:49;16.60;99.90
7206;DHT22;3644;53.480;10.004;2023-06-14T01:34:15;16.80;99.90
7206;DHT22;3644;53.480;10.004;2023-06-14T01:36:43;16.70;99.90
7206;DHT22;3644;53.480;10.004;2023-06-14T01:39:12;16.70;99.90
7206;DHT22;3644;53.480;10.004;2023-06-14T01:41:39;16.60;99.90
7206;DHT22;3644;53.480;10.004;2023-06-14T01:44:06;16.70;99.90
7206;DHT22;3644;53.480;10.004;2023-06-14T01:46:32;16.60;99.90
7206;DHT22;3644;53.480;10.004;2023-06-14T01:48:58;16.60;99.90
7206;DHT22;3644;53.480;10.004;2023-06-14T01:51:24;16.60;99.90
7206;DHT22;3644;53.480;10.004;2023-06-14T01:53:49;16.70;99.90
7206;DHT22;3644;53.480;10.004;2023-06-14T01:56:15;16.70;99.90
7206;DHT22;3644;53.480;10.004;2023-06-14T01:58:41;16.60;99.90
7206;DHT22;3644;53.480;10.004;2023-06-14T02:01:06;16.60;99.90
7206;DHT22;3644;53.480;10.004;2023-06-14T02:03:32;16.60;99.90
7206;DHT22;3644;53.480;10.004;2023-06-14T02:05:58;16.60;99.90
7206;DHT22;3644;53.480;10.004;2023-06-14T02:08:24;16.50;99.90
7206;DHT22;3644;53.480;10.004;2023-06-14T02:10:49;16.60;99.90
7206;DHT22;3644;53.480;10.004;2023-06-14T02:13:15;16.70;99.90
7206;DHT22;3644;53.480;10.004;2023-06-14T02:15:41;16.70;99.90
7206;DHT22;3644;53.480;10.004;2023-06-14T02:18:09;16.70;99.90
7206;DHT22;3644;53.480;10.004;2023-06-14T02:20:35;16.70;99.90
7206;DHT22;3644;53.480;10.004;2023-06-14T02:23:01;16.70;99.90
7206;DHT22;3644;53.480;10.004;2023-06-14T02:25:27;16.60;99.90
7206;DHT22;3644;53.480;10.004;2023-06-14T02:27:53;16.50;99.90
7206;DHT22;3644;53.480;10.004;2023-06-14T02:30:20;16.60;99.90
7206;DHT22;3644;53.480;10.004;2023-06-14T02:32:46;16.50;99.90
7206;DHT22;3644;53.480;10.004;2023-06-14T02:35:12;16.50;99.90
7206;DHT22;3644;53.480;10.004;2023-06-14T02:37:38;16.50;99.90
7206;DHT22;3644;53.480;10.004;2023-06-14T02:40:05;16.40;99.90
7206;DHT22;3644;53.480;10.004;2023-06-14T02:42:31;16.40;99.90
7206;DHT22;3644;53.480;10.004;2023-06-14T02:44:56;16.40;99.90
7206;DHT22;3644;53.480;10.004;2023-06-14T02:47:22;16.40;99.90
7206;DHT22;3644;53.480;10.004;2023-06-14T02:49:47;16.30;99.90
7206;DHT22;3644;53.480;10.004;2023-06-14T02:52:13;16.30;99.90
7206;DHT22;3644;53.480;10.004;2023-06-14T02:54:39;16.20;99.90
7206;DHT22;3644;53.480;10.004;2023-06-14T02:57:05;16.20;99.90
7206;DHT22;3644;53.480;10.004;2023-06-14T02:59:33;16.30;99.90
7206;DHT22;3644;53.480;10.004;2023-06-14T03:01:58;16.30;99.90
7206;DHT22;3644;53.480;10.004;2023-06-14T03:04:24;16.30;99.90
7206;DHT22;3644;53.480;10.004;2023-06-14T03:06:51;16.40;99.90
7206;DHT22;3644;53.480;10.004;2023-06-14T03:09:17;16.30;99.90
7206;DHT22;3644;53.480;10.004;2023-06-14T03:11:42;16.20;99.90
7206;DHT22;3644;53.480;10.004;2023-06-14T03:14:08;16.20;99.90
7206;DHT22;3644;53.480;10.004;2023-06-14T03:16:34;16.20;99.90
7206;DHT22;3644;53.480;10.004;2023-06-14T03:19:00;16.20;99.90
7206;DHT22;3644;53.480;10.004;2023-06-14T03:21:25;16.20;99.90
7206;DHT22;3644;53.480;10.004;2023-06-14T03:23:51;16.30;99.90
7206;DHT22;3644;53.480;10.004;2023-06-14T03:26:18;16.30;99.90
7206;DHT22;3644;53.480;10.004;2023-06-14T03:28:44;16.30;99.90
7206;DHT22;3644;53.480;10.004;2023-06-14T03:31:14;16.40;99.90
7206;DHT22;3644;53.480;10.004;2023-06-14T03:33:40;16.40;99.90
7206;DHT22;3644;53.480;10.004;2023-06-14T03:36:06;16.40;99.90
7206;DHT22;3644;53.480;10.004;2023-06-14T03:38:34;16.40;99.90
7206;DHT22;3644;53.480;10.004;2023-06-14T03:41:00;16.20;99.90
7206;DHT22;3644;53.480;10.004;2023-06-14T03:43:26;16.30;99.90
7206;DHT22;3644;53.480;10.004;2023-06-14T03:45:52;16.30;99.90
7206;DHT22;3644;53.480;10.004;2023-06-14T03:48:17;16.40;99.90
7206;DHT22;3644;53.480;10.004;2023-06-14T03:50:43;16.50;99.90
7206;DHT22;3644;53.480;10.004;2023-06-14T03:53:10;16.50;99.90
7206;DHT22;3644;53.480;10.004;2023-06-14T03:55:35;16.60;99.90
7206;DHT22;3644;53.480;10.004;2023-06-14T03:58:01;16.80;99.90
7206;DHT22;3644;53.480;10.004;2023-06-14T04:00:26;16.80;99.90
7206;DHT22;3644;53.480;10.004;2023-06-14T04:02:52;16.90;99.90
7206;DHT22;3644;53.480;10.004;2023-06-14T04:05:19;16.80;99.90
7206;DHT22;3644;53.480;10.004;2023-06-14T04:07:45;17.00;99.90
7206;DHT22;3644;53.480;10.004;2023-06-14T04:10:12;17.00;99.90
7206;DHT22;3644;53.480;10.004;2023-06-14T04:12:38;16.90;99.90
7206;DHT22;3644;53.480;10.004;2023-06-14T04:15:05;16.80;99.90
7206;DHT22;3644;53.480;10.004;2023-06-14T04:17:34;16.80;99.90
7206;DHT22;3644;53.480;10.004;2023-06-14T04:20:00;16.60;99.90
7206;DHT22;3644;53.480;10.004;2023-06-14T04:22:26;16.60;99.90
7206;DHT22;3644;53.480;10.004;2023-06-14T04:24:55;16.70;99.90
7206;DHT22;3644;53.480;10.004;2023-06-14T04:27:22;16.70;99.90
7206;DHT22;3644;53.480;10.004;2023-06-14T04:29:51;16.30;99.90
7206;DHT22;3644;53.480;10.004;2023-06-14T04:32:28;16.30;99.90
7206;DHT22;3644;53.480;10.004;2023-06-14T04:34:55;16.40;99.90
7206;DHT22;3644;53.480;10.004;2023-06-14T04:37:21;16.40;99.90
7206;DHT22;3644;53.480;10.004;2023-06-14T04:39:48;16.60;99.90
7206;DHT22;3644;53.480;10.004;2023-06-14T04:42:14;16.50;99.90
7206;DHT22;3644;53.480;10.004;2023-06-14T04:44:41;16.60;99.90
7206;DHT22;3644;53.480;10.004;2023-06-14T04:47:07;16.60;99.90
7206;DHT22;3644;53.480;10.004;2023-06-14T04:49:33;16.50;99.90
7206;DHT22;3644;53.480;10.004;2023-06-14T04:52:00;16.60;99.90
7206;DHT22;3644;53.480;10.004;2023-06-14T04:54:28;16.70;99.90
7206;DHT22;3644;53.480;10.004;2023-06-14T04:56:56;16.50;99.90
7206;DHT22;3644;53.480;10.004;2023-06-14T04:59:22;16.40;99.90
7206;DHT22;3644;53.480;10.004;2023-06-14T05:01:51;16.50;99.90
7206;DHT22;3644;53.480;10.004;2023-06-14T05:04:18;16.70;99.90
7206;DHT22;3644;53.480;10.004;2023-06-14T05:06:44;16.80;99.90
7206;DHT22;3644;53.480;10.004;2023-06-14T05:09:11;17.00;99.90
7206;DHT22;3644;53.480;10.004;2023-06-14T05:11:37;17.20;99.90
7206;DHT22;3644;53.480;10.004;2023-06-14T05:14:02;17.30;99.90
7206;DHT22;3644;53.480;10.004;2023-06-14T05:16:28;17.40;99.90
7206;DHT22;3644;53.480;10.004;2023-06-14T05:18:54;17.40;99.90
7206;DHT22;3644;53.480;10.004;2023-06-14T05:21:20;17.50;99.90
7206;DHT22;3644;53.480;10.004;2023-06-14T05:23:46;17.50;99.90
7206;DHT22;3644;53.480;10.004;2023-06-14T05:26:11;17.50;99.90
7206;DHT22;3644;53.480;10.004;2023-06-14T05:28:37;17.40;99.90
7206;DHT22;3644;53.480;10.004;2023-06-14T05:31:02;17.60;99.90
7206;DHT22;3644;53.480;10.004;2023-06-14T05:33:28;17.60;99.90
7206;DHT22;3644;53.480;10.004;2023-06-14T05:35:54;17.60;99.90
7206;DHT22;3644;53.480;10.004;2023-06-14T05:38:19;17.70;99.90
7206;DHT22;3644;53.480;10.004;2023-06-14T05:40:45;17.70;99.90
7206;DHT22;3644;53.480;10.004;2023-06-14T05:43:10;17.80;99.90
7206;DHT22;3644;53.480;10.004;2023-06-14T05:45:36;18.00;99.90
7206;DHT22;3644;53.480;10.004;2023-06-14T05:48:01;18.20;99.90
7206;DHT22;3644;53.480;10.004;2023-06-14T05:50:27;18.40;99.90
7206;DHT22;3644;53.480;10.004;2023-06-14T05:52:53;18.20;99.90
7206;DHT22;3644;53.480;10.004;2023-06-14T05:55:19;18.60;99.90
7206;DHT22;3644;53.480;10.004;2023-06-14T05:57:45;18.90;99.90
7206;DHT22;3644;53.480;10.004;2023-06-14T06:00:11;19.20;99.90
7206;DHT22;3644;53.480;10.004;2023-06-14T06:02:43;19.40;99.90
7206;DHT22;3644;53.480;10.004;2023-06-14T06:05:09;19.60;99.90
7206;DHT22;3644;53.480;10.004;2023-06-14T06:07:36;19.60;99.90
7206;DHT22;3644;53.480;10.004;2023-06-14T06:10:01;19.80;99.90
7206;DHT22;3644;53.480;10.004;2023-06-14T06:12:27;20.10;99.90
7206;DHT22;3644;53.480;10.004;2023-06-14T06:14:52;20.30;99.90
7206;DHT22;3644;53.480;10.004;2023-06-14T06:17:18;20.40;99.90
7206;DHT22;3644;53.480;10.004;2023-06-14T06:19:43;20.50;99.90
7206;DHT22;3644;53.480;10.004;2023-06-14T06:22:09;20.60;99.90
7206;DHT22;3644;53.480;10.004;2023-06-14T06:24:35;20.60;99.90
7206;DHT22;3644;53.480;10.004;2023-06-14T06:27:00;20.70;99.90
7206;DHT22;3644;53.480;10.004;2023-06-14T06:29:26;20.60;99.90
7206;DHT22;3644;53.480;10.004;2023-06-14T06:31:51;20.80;99.90
7206;DHT22;3644;53.480;10.004;2023-06-14T06:34:17;20.90;99.90
7206;DHT22;3644;53.480;10.004;2023-06-14T06:36:42;21.00;99.90
7206;DHT22;3644;53.480;10.004;2023-06-14T06:39:08;21.20;99.90
7206;DHT22;3644;53.480;10.004;2023-06-14T06:41:37;21.40;99.90
7206;DHT22;3644;53.480;10.004;2023-06-14T06:44:05;21.50;99.90
7206;DHT22;3644;53.480;10.004;2023-06-14T06:46:31;21.50;99.90
7206;DHT22;3644;53.480;10.004;2023-06-14T06:48:57;21.70;99.90
7206;DHT22;3644;53.480;10.004;2023-06-14T06:51:22;21.80;99.90
7206;DHT22;3644;53.480;10.004;2023-06-14T06:53:53;21.80;99.90
7206;DHT22;3644;53.480;10.004;2023-06-14T06:56:18;21.60;99.90
7206;DHT22;3644;53.480;10.004;2023-06-14T06:58:45;21.40;99.90
7206;DHT22;3644;53.480;10.004;2023-06-14T07:01:10;21.40;99.90
7206;DHT22;3644;53.480;10.004;2023-06-14T07:03:37;21.70;99.90
7206;DHT22;3644;53.480;10.004;2023-06-14T07:06:02;21.90;99.90
7206;DHT22;3644;53.480;10.004;2023-06-14T07:08:28;21.90;99.90
7206;DHT22;3644;53.480;10.004;2023-06-14T07:10:53;22.00;99.90
7206;DHT22;3644;53.480;10.004;2023-06-14T07:13:19;22.10;99.90
7206;DHT22;3644;53.480;10.004;2023-06-14T07:15:45;22.20;99.90
7206;DHT22;3644;53.480;10.004;2023-06-14T07:18:11;22.40;99.90
7206;DHT22;3644;53.480;10.004;2023-06-14T07:20:37;22.50;99.90
7206;DHT22;3644;53.480;10.004;2023-06-14T07:23:03;22.60;99.90
7206;DHT22;3644;53.480;10.004;2023-06-14T07:25:29;22.40;99.90
7206;DHT22;3644;53.480;10.004;2023-06-14T07:27:55;22.20;99.90
7206;DHT22;3644;53.480;10.004;2023-06-14T07:30:20;22.30;99.90
7206;DHT22;3644;53.480;10.004;2023-06-14T07:32:46;22.50;99.90
7206;DHT22;3644;53.480;10.004;2023-06-14T07:35:11;22.80;99.90
7206;DHT22;3644;53.480;10.004;2023-06-14T07:37:37;22.90;99.90
7206;DHT22;3644;53.480;10.004;2023-06-14T07:40:03;23.10;99.90
7206;DHT22;3644;53.480;10.004;2023-06-14T07:42:35;23.10;99.90
7206;DHT22;3644;53.480;10.004;2023-06-14T07:45:02;23.20;99.90
7206;DHT22;3644;53.480;10.004;2023-06-14T07:47:27;23.20;99.90
7206;DHT22;3644;53.480;10.004;2023-06-14T07:49:53;22.60;99.90
7206;DHT22;3644;53.480;10.004;2023-06-14T07:52:18;22.80;99.90
7206;DHT22;3644;53.480;10.004;2023-06-14T07:54:44;22.70;99.90
7206;DHT22;3644;53.480;10.004;2023-06-14T07:57:09;22.60;99.90
7206;DHT22;3644;53.480;10.004;2023-06-14T07:59:35;22.80;99.90
7206;DHT22;3644;53.480;10.004;2023-06-14T08:02:01;22.90;99.90
7206;DHT22;3644;53.480;10.004;2023-06-14T08:04:26;23.10;99.90
7206;DHT22;3644;53.480;10.004;2023-06-14T08:06:52;23.30;99.90
7206;DHT22;3644;53.480;10.004;2023-06-14T08:09:18;23.40;99.90
7206;DHT22;3644;53.480;10.004;2023-06-14T08:11:44;23.30;99.90
7206;DHT22;3644;53.480;10.004;2023-06-14T08:14:10;23.30;99.90
7206;DHT22;3644;53.480;10.004;2023-06-14T08:16:36;23.50;99.90
7206;DHT22;3644;53.480;10.004;2023-06-14T08:19:01;23.70;99.90
7206;DHT22;3644;53.480;10.004;2023-06-14T08:21:27;24.00;99.90
7206;DHT22;3644;53.480;10.004;2023-06-14T08:23:57;24.20;99.90
7206;DHT22;3644;53.480;10.004;2023-06-14T08:26:23;24.00;99.90
7206;DHT22;3644;53.480;10.004;2023-06-14T08:28:48;23.70;99.90
7206;DHT22;3644;53.480;10.004;2023-06-14T08:31:14;23.50;99.90
7206;DHT22;3644;53.480;10.004;2023-06-14T08:33:39;23.70;99.90
7206;DHT22;3644;53.480;10.004;2023-06-14T08:36:08;24.10;99.90
7206;DHT22;3644;53.480;10.004;2023-06-14T08:38:34;24.40;99.90
7206;DHT22;3644;53.480;10.004;2023-06-14T08:41:00;24.60;99.90
7206;DHT22;3644;53.480;10.004;2023-06-14T08:43:26;24.70;99.90
7206;DHT22;3644;53.480;10.004;2023-06-14T08:45:58;24.70;99.90
7206;DHT22;3644;53.480;10.004;2023-06-14T08:48:26;24.50;99.90
7206;DHT22;3644;53.480;10.004;2023-06-14T08:50:56;24.70;99.90
7206;DHT22;3644;53.480;10.004;2023-06-14T08:53:28;24.50;99.90
7206;DHT22;3644;53.480;10.004;2023-06-14T08:55:58;24.60;99.90
7206;DHT22;3644;53.480;10.004;2023-06-14T08:58:25;24.70;99.90
7206;DHT22;3644;53.480;10.004;2023-06-14T09:00:51;25.00;99.90
7206;DHT22;3644;53.480;10.004;2023-06-14T09:03:18;25.30;99.90
7206;DHT22;3644;53.480;10.004;2023-06-14T09:05:46;25.40;99.90
7206;DHT22;3644;53.480;10.004;2023-06-14T09:08:12;25.60;99.90
7206;DHT22;3644;53.480;10.004;2023-06-14T09:10:39;25.90;99.90
7206;DHT22;3644;53.480;10.004;2023-06-14T09:13:05;26.00;98.70
7206;DHT22;3644;53.480;10.004;2023-06-14T09:15:31;26.10;98.30
7206;DHT22;3644;53.480;10.004;2023-06-14T09:17:57;26.30;97.80
7206;DHT22;3644;53.480;10.004;2023-06-14T09:20:24;26.00;96.30
7206;DHT22;3644;53.480;10.004;2023-06-14T09:22:50;25.70;95.70
7206;DHT22;3644;53.480;10.004;2023-06-14T09:25:16;25.70;95.30
7206;DHT22;3644;53.480;10.004;2023-06-14T09:27:42;25.90;96.00
7206;DHT22;3644;53.480;10.004;2023-06-14T09:30:09;26.00;95.20
7206;DHT22;3644;53.480;10.004;2023-06-14T09:32:39;25.70;94.50
7206;DHT22;3644;53.480;10.004;2023-06-14T09:35:07;25.20;95.10
7206;DHT22;3644;53.480;10.004;2023-06-14T09:37:33;24.90;93.90
7206;DHT22;3644;53.480;10.004;2023-06-14T09:39:59;24.40;95.60
7206;DHT22;3644;53.480;10.004;2023-06-14T09:42:25;24.30;95.90
7206;DHT22;3644;53.480;10.004;2023-06-14T09:44:53;24.30;96.80
7206;DHT22;3644;53.480;10.004;2023-06-14T09:47:19;24.70;97.70
7206;DHT22;3644;53.480;10.004;2023-06-14T09:49:45;25.20;97.60
7206;DHT22;3644;53.480;10.004;2023-06-14T09:52:14;25.70;96.90
7206;DHT22;3644;53.480;10.004;2023-06-14T09:54:41;25.90;93.90
7206;DHT22;3644;53.480;10.004;2023-06-14T09:57:16;25.80;94.50
7206;DHT22;3644;53.480;10.004;2023-06-14T09:59:46;26.10;93.40
7206;DHT22;3644;53.480;10.004;2023-06-14T10:02:25;26.50;92.70
7206;DHT22;3644;53.480;10.004;2023-06-14T10:05:02;26.10;91.20
7206;DHT22;3644;53.480;10.004;2023-06-14T10:10:15;25.70;91.70
7206;DHT22;3644;53.480;10.004;2023-06-14T10:12:41;25.30;92.10
7206;DHT22;3644;53.480;10.004;2023-06-14T10:15:09;25.60;93.20
7206;DHT22;3644;53.480;10.004;2023-06-14T10:17:47;25.70;92.00
7206;DHT22;3644;53.480;10.004;2023-06-14T10:20:30;25.50;92.90
7206;DHT22;3644;53.480;10.004;2023-06-14T10:23:11;25.70;92.90
7206;DHT22;3644;53.480;10.004;2023-06-14T10:25:38;26.20;91.80
7206;DHT22;3644;53.480;10.004;2023-06-14T10:28:18;26.30;90.40
7206;DHT22;3644;53.480;10.004;2023-06-14T10:31:07;26.00;90.80
7206;DHT22;3644;53.480;10.004;2023-06-14T10:33:34;26.10;90.70
7206;DHT22;3644;53.480;10.004;2023-06-14T10:39:06;26.30;90.30
7206;DHT22;3644;53.480;10.004;2023-06-14T10:41:38;26.50;89.30
7206;DHT22;3644;53.480;10.004;2023-06-14T10:46:48;26.90;86.60
7206;DHT22;3644;53.480;10.004;2023-06-14T10:49:17;26.90;84.20
7206;DHT22;3644;53.480;10.004;2023-06-14T10:51:50;26.90;81.90
7206;DHT22;3644;53.480;10.004;2023-06-14T10:54:17;26.80;82.00
7206;DHT22;3644;53.480;10.004;2023-06-14T10:59:14;27.20;79.40
7206;DHT22;3644;53.480;10.004;2023-06-14T11:02:01;27.30;80.70
7206;DHT22;3644;53.480;10.004;2023-06-14T11:04:50;27.10;80.40
7206;DHT22;3644;53.480;10.004;2023-06-14T11:10:38;26.50;79.60
7206;DHT22;3644;53.480;10.004;2023-06-14T11:13:04;26.70;82.00
7206;DHT22;3644;53.480;10.004;2023-06-14T11:15:31;26.70;80.30
7206;DHT22;3644;53.480;10.004;2023-06-14T11:17:57;26.70;79.40
7206;DHT22;3644;53.480;10.004;2023-06-14T11:20:26;27.00;76.90
7206;DHT22;3644;53.480;10.004;2023-06-14T11:22:52;26.90;77.40
7206;DHT22;3644;53.480;10.004;2023-06-14T11:25:18;26.40;78.50
7206;DHT22;3644;53.480;10.004;2023-06-14T11:27:44;26.00;81.00
7206;DHT22;3644;53.480;10.004;2023-06-14T11:30:10;25.60;82.60
7206;DHT22;3644;53.480;10.004;2023-06-14T11:32:37;25.70;83.90
7206;DHT22;3644;53.480;10.004;2023-06-14T11:35:06;25.60;84.20
7206;DHT22;3644;53.480;10.004;2023-06-14T11:37:32;25.60;85.80
7206;DHT22;3644;53.480;10.004;2023-06-14T11:40:01;25.80;86.20
7206;DHT22;3644;53.480;10.004;2023-06-14T11:42:29;26.30;89.20
7206;DHT22;3644;53.480;10.004;2023-06-14T11:44:56;26.50;82.60
7206;DHT22;3644;53.480;10.004;2023-06-14T11:47:22;27.00;82.70
7206;DHT22;3644;53.480;10.004;2023-06-14T11:49:47;27.60;81.30
7206;DHT22;3644;53.480;10.004;2023-06-14T11:52:13;27.50;78.60
7206;DHT22;3644;53.480;10.004;2023-06-14T11:54:39;27.20;76.30
7206;DHT22;3644;53.480;10.004;2023-06-14T11:57:06;26.90;76.80
7206;DHT22;3644;53.480;10.004;2023-06-14T11:59:38;26.70;77.60
7206;DHT22;3644;53.480;10.004;2023-06-14T12:02:04;26.50;79.50
7206;DHT22;3644;53.480;10.004;2023-06-14T12:04:29;26.60;79.90
7206;DHT22;3644;53.480;10.004;2023-06-14T12:06:55;26.70;78.70
7206;DHT22;3644;53.480;10.004;2023-06-14T12:09:23;27.10;78.60
7206;DHT22;3644;53.480;10.004;2023-06-14T12:11:59;27.20;77.30
7206;DHT22;3644;53.480;10.004;2023-06-14T12:14:29;27.30;79.10
7206;DHT22;3644;53.480;10.004;2023-06-14T12:17:04;27.60;77.90
7206;DHT22;3644;53.480;10.004;2023-06-14T12:19:31;27.70;75.80
7206;DHT22;3644;53.480;10.004;2023-06-14T12:21:59;27.70;76.10
7206;DHT22;3644;53.480;10.004;2023-06-14T12:24:28;27.60;75.10
7206;DHT22;3644;53.480;10.004;2023-06-14T12:26:54;27.70;74.80
7206;DHT22;3644;53.480;10.004;2023-06-14T12:29:20;28.10;76.80
7206;DHT22;3644;53.480;10.004;2023-06-14T12:31:45;28.20;71.80
7206;DHT22;3644;53.480;10.004;2023-06-14T12:34:11;28.30;71.90
7206;DHT22;3644;53.480;10.004;2023-06-14T12:36:36;28.20;71.90
7206;DHT22;3644;53.480;10.004;2023-06-14T12:39:07;28.20;74.30
7206;DHT22;3644;53.480;10.004;2023-06-14T12:41:34;27.60;72.40
7206;DHT22;3644;53.480;10.004;2023-06-14T12:43:59;27.00;75.70
7206;DHT22;3644;53.480;10.004;2023-06-14T12:46:30;27.00;76.30
7206;DHT22;3644;53.480;10.004;2023-06-14T12:48:56;27.10;73.60
7206;DHT22;3644;53.480;10.004;2023-06-14T12:51:22;27.10;73.10
7206;DHT22;3644;53.480;10.004;2023-06-14T12:53:48;27.40;72.70
7206;DHT22;3644;53.480;10.004;2023-06-14T12:56:14;27.40;71.00
7206;DHT22;3644;53.480;10.004;2023-06-14T12:58:41;27.80;76.20
7206;DHT22;3644;53.480;10.004;2023-06-14T13:01:07;28.10;70.50
7206;DHT22;3644;53.480;10.004;2023-06-14T13:03:32;28.20;69.40
7206;DHT22;3644;53.480;10.004;2023-06-14T13:06:02;27.90;68.90
7206;DHT22;3644;53.480;10.004;2023-06-14T13:08:29;27.30;72.00
7206;DHT22;3644;53.480;10.004;2023-06-14T13:10:54;27.00;72.60
7206;DHT22;3644;53.480;10.004;2023-06-14T13:13:20;27.00;73.50
7206;DHT22;3644;53.480;10.004;2023-06-14T13:15:45;27.10;73.90
7206;DHT22;3644;53.480;10.004;2023-06-14T13:18:12;27.00;70.40
7206;DHT22;3644;53.480;10.004;2023-06-14T13:20:40;27.30;72.20
7206;DHT22;3644;53.480;10.004;2023-06-14T13:23:06;27.70;69.30
7206;DHT22;3644;53.480;10.004;2023-06-14T13:25:36;28.30;68.70
7206;DHT22;3644;53.480;10.004;2023-06-14T13:28:03;28.60;66.00
7206;DHT22;3644;53.480;10.004;2023-06-14T13:30:29;28.90;65.80
7206;DHT22;3644;53.480;10.004;2023-06-14T13:32:55;28.40;66.80
7206;DHT22;3644;53.480;10.004;2023-06-14T13:35:21;27.80;69.10
7206;DHT22;3644;53.480;10.004;2023-06-14T13:37:47;27.30;70.10
7206;DHT22;3644;53.480;10.004;2023-06-14T13:40:13;27.00;71.30
7206;DHT22;3644;53.480;10.004;2023-06-14T13:42:39;26.70;71.10
7206;DHT22;3644;53.480;10.004;2023-06-14T13:45:05;26.30;71.40
7206;DHT22;3644;53.480;10.004;2023-06-14T13:47:32;26.20;72.10
7206;DHT22;3644;53.480;10.004;2023-06-14T13:49:57;26.10;71.50
7206;DHT22;3644;53.480;10.004;2023-06-14T13:52:23;26.40;72.50
7206;DHT22;3644;53.480;10.004;2023-06-14T13:54:49;26.60;70.20
7206;DHT22;3644;53.480;10.004;2023-06-14T13:57:15;26.80;70.90
7206;DHT22;3644;53.480;10.004;2023-06-14T13:59:41;27.50;72.40
7206;DHT22;3644;53.480;10.004;2023-06-14T14:02:07;28.20;70.10
7206;DHT22;3644;53.480;10.004;2023-06-14T14:04:34;28.20;67.40
7206;DHT22;3644;53.480;10.004;2023-06-14T14:07:03;28.70;69.20
7206;DHT22;3644;53.480;10.004;2023-06-14T14:09:29;28.50;66.40
7206;DHT22;3644;53.480;10.004;2023-06-14T14:11:54;27.90;67.90
7206;DHT22;3644;53.480;10.004;2023-06-14T14:14:21;27.60;68.30
7206;DHT22;3644;53.480;10.004;2023-06-14T14:16:46;27.50;68.40
7206;DHT22;3644;53.480;10.004;2023-06-14T14:19:12;27.20;69.30
7206;DHT22;3644;53.480;10.004;2023-06-14T14:21:37;27.20;68.60
7206;DHT22;3644;53.480;10.004;2023-06-14T14:24:03;27.40;67.50
7206;DHT22;3644;53.480;10.004;2023-06-14T14:26:29;27.90;68.50
7206;DHT22;3644;53.480;10.004;2023-06-14T14:28:54;28.00;66.20
7206;DHT22;3644;53.480;10.004;2023-06-14T14:31:20;27.90;63.40
7206;DHT22;3644;53.480;10.004;2023-06-14T14:33:45;27.60;64.80
7206;DHT22;3644;53.480;10.004;2023-06-14T14:36:11;27.90;65.60
7206;DHT22;3644;53.480;10.004;2023-06-14T14:38:36;28.20;65.20
7206;DHT22;3644;53.480;10.004;2023-06-14T14:41:02;28.00;67.00
7206;DHT22;3644;53.480;10.004;2023-06-14T14:43:28;28.00;65.10
7206;DHT22;3644;53.480;10.004;2023-06-14T14:45:56;27.90;66.60
7206;DHT22;3644;53.480;10.004;2023-06-14T14:48:21;27.80;66.40
7206;DHT22;3644;53.480;10.004;2023-06-14T14:50:47;27.60;67.40
7206;DHT22;3644;53.480;10.004;2023-06-14T14:53:13;27.50;66.90
7206;DHT22;3644;53.480;10.004;2023-06-14T14:55:42;27.60;67.00
7206;DHT22;3644;53.480;10.004;2023-06-14T14:58:07;27.70;67.10
7206;DHT22;3644;53.480;10.004;2023-06-14T15:00:34;27.90;66.00
7206;DHT22;3644;53.480;10.004;2023-06-14T15:03:00;27.90;66.40
7206;DHT22;3644;53.480;10.004;2023-06-14T15:05:25;28.00;66.40
7206;DHT22;3644;53.480;10.004;2023-06-14T15:07:51;28.20;64.30
7206;DHT22;3644;53.480;10.004;2023-06-14T15:10:16;28.10;64.10
7206;DHT22;3644;53.480;10.004;2023-06-14T15:12:42;27.80;63.90
7206;DHT22;3644;53.480;10.004;2023-06-14T15:15:07;27.50;63.60
7206;DHT22;3644;53.480;10.004;2023-06-14T15:17:34;27.60;64.20
7206;DHT22;3644;53.480;10.004;2023-06-14T15:20:00;27.80;63.80
7206;DHT22;3644;53.480;10.004;2023-06-14T15:22:25;27.90;64.70
7206;DHT22;3644;53.480;10.004;2023-06-14T15:24:51;27.90;63.50
7206;DHT22;3644;53.480;10.004;2023-06-14T15:27:17;28.10;64.50
7206;DHT22;3644;53.480;10.004;2023-06-14T15:29:43;28.60;64.60
7206;DHT22;3644;53.480;10.004;2023-06-14T15:32:09;28.70;62.90
7206;DHT22;3644;53.480;10.004;2023-06-14T15:34:35;28.40;63.70
7206;DHT22;3644;53.480;10.004;2023-06-14T15:37:00;28.10;62.60
7206;DHT22;3644;53.480;10.004;2023-06-14T15:39:29;27.90;62.70
7206;DHT22;3644;53.480;10.004;2023-06-14T15:41:55;27.70;63.10
7206;DHT22;3644;53.480;10.004;2023-06-14T15:44:21;27.60;63.00
7206;DHT22;3644;53.480;10.004;2023-06-14T15:46:46;27.40;64.50
7206;DHT22;3644;53.480;10.004;2023-06-14T15:49:13;27.20;64.20
7206;DHT22;3644;53.480;10.004;2023-06-14T15:51:38;27.30;64.10
7206;DHT22;3644;53.480;10.004;2023-06-14T15:54:04;27.30;64.70
7206;DHT22;3644;53.480;10.004;2023-06-14T15:56:30;27.50;64.10